Houlton, ME

6:18 PM EDT on August 28, 2015 (GMT -0400)
Littleton | | Change Station
CLOSE
Current Station
Personal Weather Station
Location: Littleton, ME
Elevation: 371 ft
Nearby Weather Stations

Elev 371 ft 46.20 °N, 67.81 °W | Updated 3 minutes ago

Clear
Clear
73.9 °F
Feels Like 77 °F
N
0.0
Wind Variable Wind from West

Today
High -- | Low -- °F
--% Chance of Precip.
Yesterday
High -- | Low -- °F
Precip. -- in
5:46 AM 7:17 PM
Waxing Gibbous, 99% visible
Pressure 30.03 in
Visibility 10.0 miles
Clouds Clear
Heat Index 77 °F
Dew Point 60 °F
Humidity 61%
Rainfall 0.00 in
Snow Depth Not available.
UV 1 out of 12
Pollen 7.40 out of 12
Air Quality Not available.
Flu Activity Not available.
METAR KHUL 282153Z AUTO 23004KT 10SM CLR 22/13 A3003 RMK AO2 SLP169 T02170133
Pressure 30.03 in
Visibility 10.0 miles
Clouds Clear
Heat Index 77 °F
Dew Point 60 °F
Humidity 61%
Rainfall 0.00 in
Snow Depth Not available.
UV 1 out of 12
Pollen 7.40 out of 12
Air Quality Not available.
Flu Activity Not available.
METAR KHUL 282153Z AUTO 23004KT 10SM CLR 22/13 A3003 RMK AO2 SLP169 T02170133

10-Day Weather Forecast

×

Almanac

Astronomy

Aug. 28, 2015 Rise Set
Actual Time
Civil Twilight
Nautical Twilight
Astronomical Twilight
Moon
Length of Visible Light
Length of Day
Tomorrow will be .
, % of the Moon is Illuminated

Today's Extremes

State Highs State Lows

Community

WunderPhotos

Upload Photos

1,850,515 photos uploaded!

WunderBlogs® & News

Nearby

Air Quality

  Air Quality AQ Index Pollutant
Not available.

Snow Depth

Station Depth Elevation

Earthquake Activity

City Distance Mag. Time & Date
Minimum magnitude displayed is 2.5.

Coastal Water Temperatures

Place Temperature

Stations

Nearby Weather Stations

Station Location Temp. Windchill Dew Point Humidity Wind Precip. Elev Updated Type